Etusivu
METAR-TAF:

METAR-TAF

Lentoasemat :

Jijel, Algeria

Leveyspiiri: 36-53N, Pituuspiiri: 005-49E, korkeus merenpinnasta: 2 m

Tämänhetkinen sää

Tämä raportti tehtiin 27 minuuttia sitten, kello 22.00 UTC
Tuuli 3 kn etelästä
Lämpötila 21°C
Kosteus 73%
Ilmanpaine 1018 hPa
Näkyvyys 10 km tai enemmän
ei pilviä alle 1500 m:ssä eikä cumulonimbus-pilviä

METAR: DAAV 052200Z 17003KT CAVOK 21/16 Q1018

Aika: 23:27 (22:27 UTC)

Sääennuste

Tämä raportti tehtiin 5 tuntia ja 27 minuuttia sitten, kello 17.00 UTC
Ennuste voimassa 05. päivästä klo 18 UTC - 06. päivään klo 18 UTC
Tuuli 8 kn pohjoisen/luoteesta
Näkyvyys 10 km tai enemmän
Hajanaisia pilviä 2000 ft:n korkeudessa
Todennäköisyys 30% :
Ajoittain
06. päivästä klo 06 UTC - 06. päivään klo 12 UTC
Muutamia pilviä 2300 ft:n korkeudessa, Kasvava cumulus-pilvi.

TAF: DAAV 051700Z 0518/0618 33008KT 9999 SCT020 PROB30 TEMPO 0606/0612 FEW023TCU

Säähavainnot ja -ennusteet yli 4000 lentoasemalta (METAR- ja TAF-raportit).

Käytössä olevat sääasemat on merkitty karttaan keltaisilla ja punaisilla pisteillä.

Aseta hiiri pisteen päälle nähdäksesi sääaseman nimen.

Klikkaa sitten nähdäksesi säähavainnot ja -ennusteet.

Kartan vaihtaminen: klikkaa mustalla rastilla varustettuja vihreitä pisteitä, niin voit zoomata sisään; viivalla varustettua vihreää pistettä, niin voit zoomata ulos tai vihreitä nuolia, niin pääset viereisille kartoille.


METAR-TAF: